<?xml version="1.0" encoding="UTF-8" standalone="no" ?>
<gpx xmlns="http://www.topografix.com/GPX/1/1" xmlns:xsi="http://www.w3.org/2001/XMLSchema-instance" xsi:schemaLocation="http://www.topografix.com/GPX/1/1 http://www.topografix.com/GPX/1/1/gpx.xsd" version="1.1" creator="VisuGPX - https://www.visugpx.com">
  <metadata>
    <name>Vacances 2021</name>
  </metadata>
  <trk>
    <name><![CDATA[Journal actif: 2021-07-28 18:02]]></name>
    <trkseg>
      <trkpt lat="49.34693" lon="2.9745">
        <ele>91.94</ele>
        <time>2021-07-28T20:02:30Z</time>
      </trkpt>
      <trkpt lat="49.34691" lon="2.97454">
        <ele>92.9</ele>
        <time>2021-07-28T20:03:12Z</time>
      </trkpt>
      <trkpt lat="49.34692" lon="2.97452">
        <ele>92.9</ele>
        <time>2021-07-28T20:03:15Z</time>
      </trkpt>
      <trkpt lat="49.34692" lon="2.97418">
        <ele>90.02</ele>
        <time>2021-07-28T20:03:27Z</time>
      </trkpt>
      <trkpt lat="49.34692" lon="2.97321">
        <ele>84.25</ele>
        <time>2021-07-28T20:03:38Z</time>
      </trkpt>
      <trkpt lat="49.34658" lon="2.97224">
        <ele>82.33</ele>
        <time>2021-07-28T20:03:48Z</time>
      </trkpt>
      <trkpt lat="49.34587" lon="2.97107">
        <ele>82.33</ele>
        <time>2021-07-28T20:04:03Z</time>
      </trkpt>
      <trkpt lat="49.34578" lon="2.97091">
        <ele>82.33</ele>
        <time>2021-07-28T20:04:06Z</time>
      </trkpt>
      <trkpt lat="49.34574" lon="2.97096">
        <ele>82.33</ele>
        <time>2021-07-28T20:04:07Z</time>
      </trkpt>
      <trkpt lat="49.34571" lon="2.97096">
        <ele>81.85</ele>
        <time>2021-07-28T20:04:08Z</time>
      </trkpt>
      <trkpt lat="49.34567" lon="2.97095">
        <ele>81.37</ele>
        <time>2021-07-28T20:04:19Z</time>
      </trkpt>
      <trkpt lat="49.34567" lon="2.97095">
        <ele>81.37</ele>
        <time>2021-07-28T20:04:31Z</time>
      </trkpt>
      <trkpt lat="49.34577" lon="2.97088">
        <ele>81.37</ele>
        <time>2021-07-28T20:04:33Z</time>
      </trkpt>
      <trkpt lat="49.3462" lon="2.97158">
        <ele>78.48</ele>
        <time>2021-07-28T20:04:45Z</time>
      </trkpt>
      <trkpt lat="49.34684" lon="2.97285">
        <ele>78.48</ele>
        <time>2021-07-28T20:04:57Z</time>
      </trkpt>
      <trkpt lat="49.34692" lon="2.97341">
        <ele>79.45</ele>
        <time>2021-07-28T20:05:00Z</time>
      </trkpt>
      <trkpt lat="49.34692" lon="2.97341">
        <ele>79.45</ele>
        <time>2021-07-28T20:05:01Z</time>
      </trkpt>
      <trkpt lat="49.34694" lon="2.97513">
        <ele>81.37</ele>
        <time>2021-07-28T20:05:14Z</time>
      </trkpt>
      <trkpt lat="49.34703" lon="2.97719">
        <ele>77.52</ele>
        <time>2021-07-28T20:05:32Z</time>
      </trkpt>
      <trkpt lat="49.34704" lon="2.9775">
        <ele>78</ele>
        <time>2021-07-28T20:05:35Z</time>
      </trkpt>
      <trkpt lat="49.34704" lon="2.97759">
        <ele>78</ele>
        <time>2021-07-28T20:05:36Z</time>
      </trkpt>
      <trkpt lat="49.34705" lon="2.97772">
        <ele>78.48</ele>
        <time>2021-07-28T20:05:37Z</time>
      </trkpt>
      <trkpt lat="49.34705" lon="2.97772">
        <ele>78.48</ele>
        <time>2021-07-28T20:05:38Z</time>
      </trkpt>
      <trkpt lat="49.34705" lon="2.97772">
        <ele>78</ele>
        <time>2021-07-28T20:05:39Z</time>
      </trkpt>
      <trkpt lat="49.34706" lon="2.97773">
        <ele>78</ele>
        <time>2021-07-28T20:05:40Z</time>
      </trkpt>
      <trkpt lat="49.34709" lon="2.97773">
        <ele>78</ele>
        <time>2021-07-28T20:05:41Z</time>
      </trkpt>
      <trkpt lat="49.34714" lon="2.97773">
        <ele>77.52</ele>
        <time>2021-07-28T20:05:42Z</time>
      </trkpt>
      <trkpt lat="49.34782" lon="2.97778">
        <ele>73.68</ele>
        <time>2021-07-28T20:05:54Z</time>
      </trkpt>
      <trkpt lat="49.34875" lon="2.97782">
        <ele>72.24</ele>
        <time>2021-07-28T20:06:10Z</time>
      </trkpt>
      <trkpt lat="49.34932" lon="2.97785">
        <ele>71.27</ele>
        <time>2021-07-28T20:06:23Z</time>
      </trkpt>
      <trkpt lat="49.34935" lon="2.97785">
        <ele>71.27</ele>
        <time>2021-07-28T20:06:24Z</time>
      </trkpt>
      <trkpt lat="49.34941" lon="2.97796">
        <ele>71.76</ele>
        <time>2021-07-28T20:06:25Z</time>
      </trkpt>
      <trkpt lat="49.34941" lon="2.97802">
        <ele>72.24</ele>
        <time>2021-07-28T20:06:26Z</time>
      </trkpt>
      <trkpt lat="49.34941" lon="2.97816">
        <ele>72.24</ele>
        <time>2021-07-28T20:06:27Z</time>
      </trkpt>
      <trkpt lat="49.34941" lon="2.97816">
        <ele>72.72</ele>
        <time>2021-07-28T20:06:28Z</time>
      </trkpt>
      <trkpt lat="49.34941" lon="2.97887">
        <ele>73.68</ele>
        <time>2021-07-28T20:06:37Z</time>
      </trkpt>
      <trkpt lat="49.34941" lon="2.97894">
        <ele>73.68</ele>
        <time>2021-07-28T20:06:38Z</time>
      </trkpt>
      <trkpt lat="49.34942" lon="2.97901">
        <ele>73.68</ele>
        <time>2021-07-28T20:06:39Z</time>
      </trkpt>
      <trkpt lat="49.34944" lon="2.97908">
        <ele>73.68</ele>
        <time>2021-07-28T20:06:40Z</time>
      </trkpt>
      <trkpt lat="49.34946" lon="2.97914">
        <ele>74.16</ele>
        <time>2021-07-28T20:06:41Z</time>
      </trkpt>
      <trkpt lat="49.34948" lon="2.9792">
        <ele>74.16</ele>
        <time>2021-07-28T20:06:42Z</time>
      </trkpt>
      <trkpt lat="49.34987" lon="2.98023">
        <ele>76.56</ele>
        <time>2021-07-28T20:06:56Z</time>
      </trkpt>
      <trkpt lat="49.35002" lon="2.98046">
        <ele>76.56</ele>
        <time>2021-07-28T20:06:59Z</time>
      </trkpt>
      <trkpt lat="49.35013" lon="2.98061">
        <ele>76.56</ele>
        <time>2021-07-28T20:07:00Z</time>
      </trkpt>
      <trkpt lat="49.35013" lon="2.98061">
        <ele>76.56</ele>
        <time>2021-07-28T20:07:01Z</time>
      </trkpt>
      <trkpt lat="49.35019" lon="2.98068">
        <ele>76.56</ele>
        <time>2021-07-28T20:07:02Z</time>
      </trkpt>
      <trkpt lat="49.35025" lon="2.98075">
        <ele>76.56</ele>
        <time>2021-07-28T20:07:03Z</time>
      </trkpt>
      <trkpt lat="49.35031" lon="2.98081">
        <ele>76.56</ele>
        <time>2021-07-28T20:07:04Z</time>
      </trkpt>
      <trkpt lat="49.35038" lon="2.98086">
        <ele>76.08</ele>
        <time>2021-07-28T20:07:05Z</time>
      </trkpt>
      <trkpt lat="49.35045" lon="2.9809">
        <ele>76.08</ele>
        <time>2021-07-28T20:07:06Z</time>
      </trkpt>
      <trkpt lat="49.35053" lon="2.98092">
        <ele>75.6</ele>
        <time>2021-07-28T20:07:07Z</time>
      </trkpt>
      <trkpt lat="49.35066" lon="2.98094">
        <ele>75.6</ele>
        <time>2021-07-28T20:07:09Z</time>
      </trkpt>
      <trkpt lat="49.35071" lon="2.98095">
        <ele>75.6</ele>
        <time>2021-07-28T20:07:10Z</time>
      </trkpt>
      <trkpt lat="49.35096" lon="2.98104">
        <ele>74.16</ele>
        <time>2021-07-28T20:07:15Z</time>
      </trkpt>
      <trkpt lat="49.351" lon="2.98111">
        <ele>74.16</ele>
        <time>2021-07-28T20:07:16Z</time>
      </trkpt>
      <trkpt lat="49.35105" lon="2.98117">
        <ele>73.2</ele>
        <time>2021-07-28T20:07:17Z</time>
      </trkpt>
      <trkpt lat="49.35174" lon="2.98221">
        <ele>70.31</ele>
        <time>2021-07-28T20:07:26Z</time>
      </trkpt>
      <trkpt lat="49.35213" lon="2.98281">
        <ele>74.64</ele>
        <time>2021-07-28T20:07:34Z</time>
      </trkpt>
      <trkpt lat="49.3522" lon="2.98292">
        <ele>76.08</ele>
        <time>2021-07-28T20:07:47Z</time>
      </trkpt>
      <trkpt lat="49.35235" lon="2.98315">
        <ele>77.52</ele>
        <time>2021-07-28T20:07:55Z</time>
      </trkpt>
      <trkpt lat="49.35238" lon="2.9832">
        <ele>77.52</ele>
        <time>2021-07-28T20:07:56Z</time>
      </trkpt>
      <trkpt lat="49.35242" lon="2.98325">
        <ele>78</ele>
        <time>2021-07-28T20:07:57Z</time>
      </trkpt>
      <trkpt lat="49.3528" lon="2.98381">
        <ele>79.93</ele>
        <time>2021-07-28T20:08:05Z</time>
      </trkpt>
      <trkpt lat="49.35285" lon="2.98387">
        <ele>80.41</ele>
        <time>2021-07-28T20:08:06Z</time>
      </trkpt>
      <trkpt lat="49.35292" lon="2.98389">
        <ele>80.41</ele>
        <time>2021-07-28T20:08:07Z</time>
      </trkpt>
      <trkpt lat="49.35298" lon="2.98391">
        <ele>80.89</ele>
        <time>2021-07-28T20:08:08Z</time>
      </trkpt>
      <trkpt lat="49.35303" lon="2.98392">
        <ele>81.85</ele>
        <time>2021-07-28T20:08:09Z</time>
      </trkpt>
      <trkpt lat="49.35311" lon="2.9839">
        <ele>82.81</ele>
        <time>2021-07-28T20:08:10Z</time>
      </trkpt>
      <trkpt lat="49.35336" lon="2.98383">
        <ele>83.77</ele>
        <time>2021-07-28T20:08:13Z</time>
      </trkpt>
      <trkpt lat="49.35344" lon="2.98382">
        <ele>83.29</ele>
        <time>2021-07-28T20:08:14Z</time>
      </trkpt>
      <trkpt lat="49.35353" lon="2.98383">
        <ele>83.77</ele>
        <time>2021-07-28T20:08:15Z</time>
      </trkpt>
      <trkpt lat="49.35363" lon="2.98384">
        <ele>84.73</ele>
        <time>2021-07-28T20:08:16Z</time>
      </trkpt>
      <trkpt lat="49.35372" lon="2.98388">
        <ele>85.69</ele>
        <time>2021-07-28T20:08:17Z</time>
      </trkpt>
      <trkpt lat="49.35382" lon="2.98395">
        <ele>85.69</ele>
        <time>2021-07-28T20:08:18Z</time>
      </trkpt>
      <trkpt lat="49.35392" lon="2.98402">
        <ele>85.21</ele>
        <time>2021-07-28T20:08:19Z</time>
      </trkpt>
      <trkpt lat="49.354" lon="2.98415">
        <ele>86.18</ele>
        <time>2021-07-28T20:08:20Z</time>
      </trkpt>
      <trkpt lat="49.35415" lon="2.98445">
        <ele>89.06</ele>
        <time>2021-07-28T20:08:21Z</time>
      </trkpt>
      <trkpt lat="49.35415" lon="2.98445">
        <ele>91.46</ele>
        <time>2021-07-28T20:08:22Z</time>
      </trkpt>
      <trkpt lat="49.35466" lon="2.98557">
        <ele>95.79</ele>
        <time>2021-07-28T20:08:29Z</time>
      </trkpt>
      <trkpt lat="49.35556" lon="2.98683">
        <ele>103</ele>
        <time>2021-07-28T20:08:39Z</time>
      </trkpt>
      <trkpt lat="49.35566" lon="2.98691">
        <ele>103.48</ele>
        <time>2021-07-28T20:08:40Z</time>
      </trkpt>
      <trkpt lat="49.35572" lon="2.98695">
        <ele>103</ele>
        <time>2021-07-28T20:08:41Z</time>
      </trkpt>
      <trkpt lat="49.35581" lon="2.98693">
        <ele>101.56</ele>
        <time>2021-07-28T20:08:42Z</time>
      </trkpt>
      <trkpt lat="49.35591" lon="2.98691">
        <ele>101.08</ele>
        <time>2021-07-28T20:08:43Z</time>
      </trkpt>
      <trkpt lat="49.35608" lon="2.98688">
        <ele>100.6</ele>
        <time>2021-07-28T20:08:44Z</time>
      </trkpt>
      <trkpt lat="49.35626" lon="2.98687">
        <ele>100.11</ele>
        <time>2021-07-28T20:08:47Z</time>
      </trkpt>
      <trkpt lat="49.35636" lon="2.98691">
        <ele>100.6</ele>
        <time>2021-07-28T20:08:48Z</time>
      </trkpt>
      <trkpt lat="49.35645" lon="2.98697">
        <ele>100.11</ele>
        <time>2021-07-28T20:08:49Z</time>
      </trkpt>
      <trkpt lat="49.35657" lon="2.98714">
        <ele>102.52</ele>
        <time>2021-07-28T20:08:50Z</time>
      </trkpt>
      <trkpt lat="49.35657" lon="2.98714">
        <ele>103.96</ele>
        <time>2021-07-28T20:08:51Z</time>
      </trkpt>
      <trkpt lat="49.35663" lon="2.98726">
        <ele>104.92</ele>
        <time>2021-07-28T20:08:52Z</time>
      </trkpt>
      <trkpt lat="49.35666" lon="2.98737">
        <ele>105.4</ele>
        <time>2021-07-28T20:08:53Z</time>
      </trkpt>
      <trkpt lat="49.3567" lon="2.9875">
        <ele>105.88</ele>
        <time>2021-07-28T20:08:54Z</time>
      </trkpt>
      <trkpt lat="49.35677" lon="2.98779">
        <ele>107.32</ele>
        <time>2021-07-28T20:08:56Z</time>
      </trkpt>
      <trkpt lat="49.35689" lon="2.98806">
        <ele>108.29</ele>
        <time>2021-07-28T20:08:57Z</time>
      </trkpt>
      <trkpt lat="49.35697" lon="2.98819">
        <ele>109.25</ele>
        <time>2021-07-28T20:08:58Z</time>
      </trkpt>
      <trkpt lat="49.35697" lon="2.98819">
        <ele>109.73</ele>
        <time>2021-07-28T20:08:59Z</time>
      </trkpt>
      <trkpt lat="49.35715" lon="2.98837">
        <ele>109.73</ele>
        <time>2021-07-28T20:09:00Z</time>
      </trkpt>
      <trkpt lat="49.35723" lon="2.98845">
        <ele>109.73</ele>
        <time>2021-07-28T20:09:01Z</time>
      </trkpt>
      <trkpt lat="49.35723" lon="2.98845">
        <ele>109.25</ele>
        <time>2021-07-28T20:09:02Z</time>
      </trkpt>
      <trkpt lat="49.35732" lon="2.98851">
        <ele>109.25</ele>
        <time>2021-07-28T20:09:03Z</time>
      </trkpt>
      <trkpt lat="49.35758" lon="2.98868">
        <ele>110.69</ele>
        <time>2021-07-28T20:09:06Z</time>
      </trkpt>
      <trkpt lat="49.35766" lon="2.98874">
        <ele>111.17</ele>
        <time>2021-07-28T20:09:07Z</time>
      </trkpt>
      <trkpt lat="49.35774" lon="2.98879">
        <ele>111.65</ele>
        <time>2021-07-28T20:09:08Z</time>
      </trkpt>
      <trkpt lat="49.35832" lon="2.98945">
        <ele>117.9</ele>
        <time>2021-07-28T20:09:16Z</time>
      </trkpt>
      <trkpt lat="49.3594" lon="2.99014">
        <ele>121.26</ele>
        <time>2021-07-28T20:09:25Z</time>
      </trkpt>
      <trkpt lat="49.36095" lon="2.99109">
        <ele>122.22</ele>
        <time>2021-07-28T20:09:36Z</time>
      </trkpt>
      <trkpt lat="49.36316" lon="2.99245">
        <ele>119.82</ele>
        <time>2021-07-28T20:09:49Z</time>
      </trkpt>
      <trkpt lat="49.36617" lon="2.9943">
        <ele>117.42</ele>
        <time>2021-07-28T20:10:05Z</time>
      </trkpt>
      <trkpt lat="49.36902" lon="2.99607">
        <ele>108.77</ele>
        <time>2021-07-28T20:10:21Z</time>
      </trkpt>
      <trkpt lat="49.36965" lon="2.99645">
        <ele>107.81</ele>
        <time>2021-07-28T20:10:25Z</time>
      </trkpt>
      <trkpt lat="49.36976" lon="2.99656">
        <ele>106.36</ele>
        <time>2021-07-28T20:10:26Z</time>
      </trkpt>
      <trkpt lat="49.36986" lon="2.99667">
        <ele>105.4</ele>
        <time>2021-07-28T20:10:27Z</time>
      </trkpt>
      <trkpt lat="49.36991" lon="2.9968">
        <ele>104.44</ele>
        <time>2021-07-28T20:10:28Z</time>
      </trkpt>
      <trkpt lat="49.36997" lon="2.99696">
        <ele>104.44</ele>
        <time>2021-07-28T20:10:29Z</time>
      </trkpt>
      <trkpt lat="49.37004" lon="2.99712">
        <ele>104.44</ele>
        <time>2021-07-28T20:10:30Z</time>
      </trkpt>
      <trkpt lat="49.37072" lon="2.99851">
        <ele>98.19</ele>
        <time>2021-07-28T20:10:38Z</time>
      </trkpt>
      <trkpt lat="49.37104" lon="2.99893">
        <ele>95.31</ele>
        <time>2021-07-28T20:10:41Z</time>
      </trkpt>
      <trkpt lat="49.37112" lon="2.99908">
        <ele>95.31</ele>
        <time>2021-07-28T20:10:42Z</time>
      </trkpt>
      <trkpt lat="49.3712" lon="2.99923">
        <ele>94.83</ele>
        <time>2021-07-28T20:10:43Z</time>
      </trkpt>
      <trkpt lat="49.37129" lon="2.99938">
        <ele>95.31</ele>
        <time>2021-07-28T20:10:44Z</time>
      </trkpt>
      <trkpt lat="49.37137" lon="2.99953">
        <ele>94.83</ele>
        <time>2021-07-28T20:10:45Z</time>
      </trkpt>
      <trkpt lat="49.37145" lon="2.99966">
        <ele>92.9</ele>
        <time>2021-07-28T20:10:46Z</time>
      </trkpt>
      <trkpt lat="49.37156" lon="2.99976">
        <ele>91.46</ele>
        <time>2021-07-28T20:10:47Z</time>
      </trkpt>
      <trkpt lat="49.37178" lon="2.99997">
        <ele>90.5</ele>
        <time>2021-07-28T20:10:48Z</time>
      </trkpt>
      <trkpt lat="49.37198" lon="3.00022">
        <ele>88.1</ele>
        <time>2021-07-28T20:10:50Z</time>
      </trkpt>
      <trkpt lat="49.37218" lon="3.0005">
        <ele>86.66</ele>
        <time>2021-07-28T20:10:52Z</time>
      </trkpt>
      <trkpt lat="49.37218" lon="3.0005">
        <ele>86.66</ele>
        <time>2021-07-28T20:10:53Z</time>
      </trkpt>
      <trkpt lat="49.37231" lon="3.00057">
        <ele>86.18</ele>
        <time>2021-07-28T20:10:54Z</time>
      </trkpt>
      <trkpt lat="49.37243" lon="3.00063">
        <ele>85.69</ele>
        <time>2021-07-28T20:10:55Z</time>
      </trkpt>
      <trkpt lat="49.37253" lon="3.00065">
        <ele>84.73</ele>
        <time>2021-07-28T20:10:56Z</time>
      </trkpt>
      <trkpt lat="49.37263" lon="3.00066">
        <ele>83.77</ele>
        <time>2021-07-28T20:10:57Z</time>
      </trkpt>
      <trkpt lat="49.37285" lon="3.00068">
        <ele>82.33</ele>
        <time>2021-07-28T20:10:58Z</time>
      </trkpt>
      <trkpt lat="49.37307" lon="3.00072">
        <ele>79.93</ele>
        <time>2021-07-28T20:11:01Z</time>
      </trkpt>
      <trkpt lat="49.37318" lon="3.0008">
        <ele>78.97</ele>
        <time>2021-07-28T20:11:02Z</time>
      </trkpt>
      <trkpt lat="49.3733" lon="3.00089">
        <ele>78.48</ele>
        <time>2021-07-28T20:11:03Z</time>
      </trkpt>
      <trkpt lat="49.37352" lon="3.00113">
        <ele>78</ele>
        <time>2021-07-28T20:11:04Z</time>
      </trkpt>
      <trkpt lat="49.37352" lon="3.00113">
        <ele>77.04</ele>
        <time>2021-07-28T20:11:05Z</time>
      </trkpt>
      <trkpt lat="49.37393" lon="3.00162">
        <ele>73.68</ele>
        <time>2021-07-28T20:11:09Z</time>
      </trkpt>
      <trkpt lat="49.37406" lon="3.00193">
        <ele>73.2</ele>
        <time>2021-07-28T20:11:10Z</time>
      </trkpt>
      <trkpt lat="49.37406" lon="3.00193">
        <ele>72.72</ele>
        <time>2021-07-28T20:11:11Z</time>
      </trkpt>
      <trkpt lat="49.37411" lon="3.00209">
        <ele>73.68</ele>
        <time>2021-07-28T20:11:12Z</time>
      </trkpt>
      <trkpt lat="49.37422" lon="3.00248">
        <ele>73.68</ele>
        <time>2021-07-28T20:11:13Z</time>
      </trkpt>
      <trkpt lat="49.3747" lon="3.00411">
        <ele>69.35</ele>
        <time>2021-07-28T20:11:22Z</time>
      </trkpt>
      <trkpt lat="49.37479" lon="3.00428">
        <ele>68.87</ele>
        <time>2021-07-28T20:11:23Z</time>
      </trkpt>
      <trkpt lat="49.37488" lon="3.00445">
        <ele>67.91</ele>
        <time>2021-07-28T20:11:24Z</time>
      </trkpt>
      <trkpt lat="49.37516" lon="3.00496">
        <ele>65.99</ele>
        <time>2021-07-28T20:11:27Z</time>
      </trkpt>
      <trkpt lat="49.37524" lon="3.00512">
        <ele>65.03</ele>
        <time>2021-07-28T20:11:28Z</time>
      </trkpt>
      <trkpt lat="49.37532" lon="3.00529">
        <ele>65.51</ele>
        <time>2021-07-28T20:11:29Z</time>
      </trkpt>
      <trkpt lat="49.37537" lon="3.00547">
        <ele>65.99</ele>
        <time>2021-07-28T20:11:30Z</time>
      </trkpt>
      <trkpt lat="49.37543" lon="3.00566">
        <ele>65.99</ele>
        <time>2021-07-28T20:11:31Z</time>
      </trkpt>
      <trkpt lat="49.3756" lon="3.00621">
        <ele>65.03</ele>
        <time>2021-07-28T20:11:34Z</time>
      </trkpt>
      <trkpt lat="49.37567" lon="3.00641">
        <ele>63.58</ele>
        <time>2021-07-28T20:11:35Z</time>
      </trkpt>
      <trkpt lat="49.37581" lon="3.00674">
        <ele>63.1</ele>
        <time>2021-07-28T20:11:36Z</time>
      </trkpt>
      <trkpt lat="49.37581" lon="3.00674">
        <ele>61.18</ele>
        <time>2021-07-28T20:11:37Z</time>
      </trkpt>
      <trkpt lat="49.37591" lon="3.00691">
        <ele>60.22</ele>
        <time>2021-07-28T20:11:38Z</time>
      </trkpt>
      <trkpt lat="49.37668" lon="3.00838">
        <ele>53.49</ele>
        <time>2021-07-28T20:11:47Z</time>
      </trkpt>
      <trkpt lat="49.37675" lon="3.00855">
        <ele>52.53</ele>
        <time>2021-07-28T20:11:48Z</time>
      </trkpt>
      <trkpt lat="49.37683" lon="3.00868">
        <ele>51.57</ele>
        <time>2021-07-28T20:11:49Z</time>
      </trkpt>
      <trkpt lat="49.37692" lon="3.00881">
        <ele>50.61</ele>
        <time>2021-07-28T20:11:50Z</time>
      </trkpt>
      <trkpt lat="49.37701" lon="3.00894">
        <ele>50.13</ele>
        <time>2021-07-28T20:11:51Z</time>
      </trkpt>
      <trkpt lat="49.3771" lon="3.00906">
        <ele>49.16</ele>
        <time>2021-07-28T20:11:52Z</time>
      </trkpt>
      <trkpt lat="49.3772" lon="3.00918">
        <ele>48.68</ele>
        <time>2021-07-28T20:11:53Z</time>
      </trkpt>
      <trkpt lat="49.37731" lon="3.00926">
        <ele>48.2</ele>
        <time>2021-07-28T20:11:54Z</time>
      </trkpt>
      <trkpt lat="49.37743" lon="3.00934">
        <ele>48.2</ele>
        <time>2021-07-28T20:11:55Z</time>
      </trkpt>
      <trkpt lat="49.37754" lon="3.00942">
        <ele>48.2</ele>
        <time>2021-07-28T20:11:56Z</time>
      </trkpt>
      <trkpt lat="49.3794" lon="3.0101">
        <ele>47.24</ele>
        <time>2021-07-28T20:12:10Z</time>
      </trkpt>
      <trkpt lat="49.37968" lon="3.0102">
        <ele>45.8</ele>
        <time>2021-07-28T20:12:12Z</time>
      </trkpt>
      <trkpt lat="49.37983" lon="3.01025">
        <ele>46.76</ele>
        <time>2021-07-28T20:12:13Z</time>
      </trkpt>
      <trkpt lat="49.37994" lon="3.01036">
        <ele>46.28</ele>
        <time>2021-07-28T20:12:14Z</time>
      </trkpt>
      <trkpt lat="49.38005" lon="3.01049">
        <ele>46.76</ele>
        <time>2021-07-28T20:12:15Z</time>
      </trkpt>
      <trkpt lat="49.38015" lon="3.01064">
        <ele>46.28</ele>
        <time>2021-07-28T20:12:16Z</time>
      </trkpt>
      <trkpt lat="49.38025" lon="3.01078">
        <ele>45.8</ele>
        <time>2021-07-28T20:12:17Z</time>
      </trkpt>
      <trkpt lat="49.38035" lon="3.01093">
        <ele>44.84</ele>
        <time>2021-07-28T20:12:18Z</time>
      </trkpt>
      <trkpt lat="49.38046" lon="3.01105">
        <ele>45.32</ele>
        <time>2021-07-28T20:12:19Z</time>
      </trkpt>
      <trkpt lat="49.38058" lon="3.01116">
        <ele>45.32</ele>
        <time>2021-07-28T20:12:20Z</time>
      </trkpt>
      <trkpt lat="49.38148" lon="3.01196">
        <ele>48.2</ele>
        <time>2021-07-28T20:12:28Z</time>
      </trkpt>
      <trkpt lat="49.38192" lon="3.01229">
        <ele>47.24</ele>
        <time>2021-07-28T20:12:32Z</time>
      </trkpt>
      <trkpt lat="49.38192" lon="3.01229">
        <ele>47.24</ele>
        <time>2021-07-28T20:12:33Z</time>
      </trkpt>
      <trkpt lat="49.38211" lon="3.01234">
        <ele>46.76</ele>
        <time>2021-07-28T20:12:34Z</time>
      </trkpt>
      <trkpt lat="49.38222" lon="3.01234">
        <ele>46.28</ele>
        <time>2021-07-28T20:12:35Z</time>
      </trkpt>
      <trkpt lat="49.38222" lon="3.01234">
        <ele>46.28</ele>
        <time>2021-07-28T20:12:36Z</time>
      </trkpt>
      <trkpt lat="49.38232" lon="3.01233">
        <ele>46.28</ele>
        <time>2021-07-28T20:12:37Z</time>
      </trkpt>
      <trkpt lat="49.38394" lon="3.01182">
        <ele>47.72</ele>
        <time>2021-07-28T20:12:50Z</time>
      </trkpt>
      <trkpt lat="49.38431" lon="3.01161">
        <ele>48.68</ele>
        <time>2021-07-28T20:12:53Z</time>
      </trkpt>
      <trkpt lat="49.38441" lon="3.01154">
        <ele>48.68</ele>
        <time>2021-07-28T20:12:54Z</time>
      </trkpt>
      <trkpt lat="49.3845" lon="3.01144">
        <ele>49.16</ele>
        <time>2021-07-28T20:12:55Z</time>
      </trkpt>
      <trkpt lat="49.38467" lon="3.0112">
        <ele>49.16</ele>
        <time>2021-07-28T20:12:56Z</time>
      </trkpt>
      <trkpt lat="49.38474" lon="3.01107">
        <ele>49.16</ele>
        <time>2021-07-28T20:12:57Z</time>
      </trkpt>
      <trkpt lat="49.38553" lon="3.00969">
        <ele>49.16</ele>
        <time>2021-07-28T20:13:09Z</time>
      </trkpt>
      <trkpt lat="49.38562" lon="3.00949">
        <ele>48.2</ele>
        <time>2021-07-28T20:13:12Z</time>
      </trkpt>
      <trkpt lat="49.38564" lon="3.0094">
        <ele>47.72</ele>
        <time>2021-07-28T20:13:13Z</time>
      </trkpt>
      <trkpt lat="49.38582" lon="3.00852">
        <ele>43.88</ele>
        <time>2021-07-28T20:13:21Z</time>
      </trkpt>
      <trkpt lat="49.38586" lon="3.00842">
        <ele>42.92</ele>
        <time>2021-07-28T20:13:22Z</time>
      </trkpt>
      <trkpt lat="49.3859" lon="3.00831">
        <ele>42.92</ele>
        <time>2021-07-28T20:13:23Z</time>
      </trkpt>
      <trkpt lat="49.38595" lon="3.00824">
        <ele>42.44</ele>
        <time>2021-07-28T20:13:24Z</time>
      </trkpt>
      <trkpt lat="49.38601" lon="3.00817">
        <ele>41.95</ele>
        <time>2021-07-28T20:13:25Z</time>
      </trkpt>
      <trkpt lat="49.38608" lon="3.0081">
        <ele>41.47</ele>
        <time>2021-07-28T20:13:26Z</time>
      </trkpt>
      <trkpt lat="49.38695" lon="3.00718">
        <ele>40.51</ele>
        <time>2021-07-28T20:13:40Z</time>
      </trkpt>
      <trkpt lat="49.38744" lon="3.00672">
        <ele>40.03</ele>
        <time>2021-07-28T20:13:53Z</time>
      </trkpt>
      <trkpt lat="49.38791" lon="3.00643">
        <ele>40.99</ele>
        <time>2021-07-28T20:14:00Z</time>
      </trkpt>
      <trkpt lat="49.38898" lon="3.00628">
        <ele>40.99</ele>
        <time>2021-07-28T20:14:13Z</time>
      </trkpt>
      <trkpt lat="49.39019" lon="3.0063">
        <ele>44.36</ele>
        <time>2021-07-28T20:14:27Z</time>
      </trkpt>
      <trkpt lat="49.39019" lon="3.0063">
        <ele>44.84</ele>
        <time>2021-07-28T20:14:28Z</time>
      </trkpt>
      <trkpt lat="49.39027" lon="3.00627">
        <ele>45.32</ele>
        <time>2021-07-28T20:14:29Z</time>
      </trkpt>
      <trkpt lat="49.3907" lon="3.00605">
        <ele>42.92</ele>
        <time>2021-07-28T20:14:36Z</time>
      </trkpt>
      <trkpt lat="49.39102" lon="3.00586">
        <ele>42.44</ele>
        <time>2021-07-28T20:14:44Z</time>
      </trkpt>
      <trkpt lat="49.39146" lon="3.00564">
        <ele>42.44</ele>
        <time>2021-07-28T20:14:53Z</time>
      </trkpt>
      <trkpt lat="49.39255" lon="3.00524">
        <ele>44.84</ele>
        <time>2021-07-28T20:15:03Z</time>
      </trkpt>
      <trkpt lat="49.39395" lon="3.00497">
        <ele>42.92</ele>
        <time>2021-07-28T20:15:13Z</time>
      </trkpt>
      <trkpt lat="49.39553" lon="3.0048">
        <ele>44.84</ele>
        <time>2021-07-28T20:15:24Z</time>
      </trkpt>
      <trkpt lat="49.39599" lon="3.00466">
        <ele>38.59</ele>
        <time>2021-07-28T20:15:31Z</time>
      </trkpt>
      <trkpt lat="49.39611" lon="3.00462">
        <ele>38.11</ele>
        <time>2021-07-28T20:15:42Z</time>
      </trkpt>
      <trkpt lat="49.39634" lon="3.00455">
        <ele>38.11</ele>
        <time>2021-07-28T20:15:50Z</time>
      </trkpt>
      <trkpt lat="49.3974" lon="3.0042">
        <ele>39.07</ele>
        <time>2021-07-28T20:16:01Z</time>
      </trkpt>
      <trkpt lat="49.39887" lon="3.00365">
        <ele>40.99</ele>
        <time>2021-07-28T20:16:15Z</time>
      </trkpt>
      <trkpt lat="49.40039" lon="3.00297">
        <ele>37.15</ele>
        <time>2021-07-28T20:16:30Z</time>
      </trkpt>
      <trkpt lat="49.40135" lon="3.0031">
        <ele>38.11</ele>
        <time>2021-07-28T20:16:39Z</time>
      </trkpt>
      <trkpt lat="49.40223" lon="3.00387">
        <ele>38.59</ele>
        <time>2021-07-28T20:16:50Z</time>
      </trkpt>
      <trkpt lat="49.40308" lon="3.00441">
        <ele>37.15</ele>
        <time>2021-07-28T20:17:01Z</time>
      </trkpt>
      <trkpt lat="49.40386" lon="3.00476">
        <ele>37.15</ele>
        <time>2021-07-28T20:17:12Z</time>
      </trkpt>
      <trkpt lat="49.40394" lon="3.0048">
        <ele>37.15</ele>
        <time>2021-07-28T20:17:21Z</time>
      </trkpt>
      <trkpt lat="49.4042" lon="3.00495">
        <ele>37.15</ele>
        <time>2021-07-28T20:17:28Z</time>
      </trkpt>
      <trkpt lat="49.4049" lon="3.00527">
        <ele>37.15</ele>
        <time>2021-07-28T20:17:40Z</time>
      </trkpt>
      <trkpt lat="49.40519" lon="3.00542">
        <ele>37.63</ele>
        <time>2021-07-28T20:17:49Z</time>
      </trkpt>
      <trkpt lat="49.40522" lon="3.00544">
        <ele>37.63</ele>
        <time>2021-07-28T20:17:50Z</time>
      </trkpt>
      <trkpt lat="49.40525" lon="3.00548">
        <ele>37.15</ele>
        <time>2021-07-28T20:17:51Z</time>
      </trkpt>
      <trkpt lat="49.40528" lon="3.00551">
        <ele>36.67</ele>
        <time>2021-07-28T20:17:52Z</time>
      </trkpt>
      <trkpt lat="49.4053" lon="3.00558">
        <ele>36.67</ele>
        <time>2021-07-28T20:17:53Z</time>
      </trkpt>
      <trkpt lat="49.40531" lon="3.00565">
        <ele>36.67</ele>
        <time>2021-07-28T20:17:54Z</time>
      </trkpt>
      <trkpt lat="49.40538" lon="3.00595">
        <ele>36.19</ele>
        <time>2021-07-28T20:17:57Z</time>
      </trkpt>
      <trkpt lat="49.40541" lon="3.00607">
        <ele>36.19</ele>
        <time>2021-07-28T20:17:58Z</time>
      </trkpt>
      <trkpt lat="49.40587" lon="3.00737">
        <ele>35.23</ele>
        <time>2021-07-28T20:18:10Z</time>
      </trkpt>
      <trkpt lat="49.40593" lon="3.00749">
        <ele>34.26</ele>
        <time>2021-07-28T20:18:11Z</time>
      </trkpt>
      <trkpt lat="49.40601" lon="3.00757">
        <ele>34.26</ele>
        <time>2021-07-28T20:18:12Z</time>
      </trkpt>
      <trkpt lat="49.40609" lon="3.00765">
        <ele>34.74</ele>
        <time>2021-07-28T20:18:13Z</time>
      </trkpt>
      <trkpt lat="49.40619" lon="3.00769">
        <ele>34.74</ele>
        <time>2021-07-28T20:18:14Z</time>
      </trkpt>
      <trkpt lat="49.40629" lon="3.00772">
        <ele>34.26</ele>
        <time>2021-07-28T20:18:15Z</time>
      </trkpt>
      <trkpt lat="49.40637" lon="3.00774">
        <ele>34.74</ele>
        <time>2021-07-28T20:18:16Z</time>
      </trkpt>
      <trkpt lat="49.40646" lon="3.00774">
        <ele>34.74</ele>
        <time>2021-07-28T20:18:17Z</time>
      </trkpt>
      <trkpt lat="49.4075" lon="3.0077">
        <ele>34.26</ele>
        <time>2021-07-28T20:18:30Z</time>
      </trkpt>
      <trkpt lat="49.40854" lon="3.00789">
        <ele>31.86</ele>
        <time>2021-07-28T20:18:40Z</time>
      </trkpt>
      <trkpt lat="49.4098" lon="3.00829">
        <ele>32.82</ele>
        <time>2021-07-28T20:18:53Z</time>
      </trkpt>
      <trkpt lat="49.41023" lon="3.00836">
        <ele>32.34</ele>
        <time>2021-07-28T20:18:57Z</time>
      </trkpt>
      <trkpt lat="49.41034" lon="3.00838">
        <ele>31.86</ele>
        <time>2021-07-28T20:18:58Z</time>
      </trkpt>
      <trkpt lat="49.41152" lon="3.00856">
        <ele>32.82</ele>
        <time>2021-07-28T20:19:10Z</time>
      </trkpt>
      <trkpt lat="49.41173" lon="3.00857">
        <ele>33.3</ele>
        <time>2021-07-28T20:19:12Z</time>
      </trkpt>
      <trkpt lat="49.41284" lon="3.00847">
        <ele>35.71</ele>
        <time>2021-07-28T20:19:24Z</time>
      </trkpt>
      <trkpt lat="49.41312" lon="3.00868">
        <ele>37.63</ele>
        <time>2021-07-28T20:19:34Z</time>
      </trkpt>
      <trkpt lat="49.41303" lon="3.0093">
        <ele>37.63</ele>
        <time>2021-07-28T20:19:45Z</time>
      </trkpt>
      <trkpt lat="49.4129" lon="3.01019">
        <ele>38.59</ele>
        <time>2021-07-28T20:20:03Z</time>
      </trkpt>
      <trkpt lat="49.41287" lon="3.01039">
        <ele>39.07</ele>
        <time>2021-07-28T20:20:20Z</time>
      </trkpt>
      <trkpt lat="49.41282" lon="3.01071">
        <ele>38.59</ele>
        <time>2021-07-28T20:20:36Z</time>
      </trkpt>
      <trkpt lat="49.41282" lon="3.01071">
        <ele>38.59</ele>
        <time>2021-07-28T20:21:07Z</time>
      </trkpt>
      <trkpt lat="49.41282" lon="3.01071">
        <ele>38.59</ele>
        <time>2021-07-28T20:21:08Z</time>
      </trkpt>
      <trkpt lat="49.41285" lon="3.01052">
        <ele>38.59</ele>
        <time>2021-07-28T20:21:26Z</time>
      </trkpt>
      <trkpt lat="49.41285" lon="3.01052">
        <ele>38.11</ele>
        <time>2021-07-28T20:21:32Z</time>
      </trkpt>
      <trkpt lat="49.41275" lon="3.01043">
        <ele>37.15</ele>
        <time>2021-07-28T20:21:39Z</time>
      </trkpt>
      <trkpt lat="49.41265" lon="3.0104">
        <ele>37.15</ele>
        <time>2021-07-28T20:21:53Z</time>
      </trkpt>
      <trkpt lat="49.41257" lon="3.01039">
        <ele>37.15</ele>
        <time>2021-07-28T20:22:13Z</time>
      </trkpt>
      <trkpt lat="49.41257" lon="3.0104">
        <ele>36.67</ele>
        <time>2021-07-28T20:24:09Z</time>
      </trkpt>
      <trkpt lat="49.41259" lon="3.01039">
        <ele>36.67</ele>
        <time>2021-07-28T20:26:26Z</time>
      </trkpt>
      <trkpt lat="49.41261" lon="3.01039">
        <ele>37.63</ele>
        <time>2021-07-28T20:26:46Z</time>
      </trkpt>
      <trkpt lat="49.41261" lon="3.01039">
        <ele>37.63</ele>
        <time>2021-07-28T20:28:38Z</time>
      </trkpt>
      <trkpt lat="49.41261" lon="3.01039">
        <ele>37.15</ele>
        <time>2021-07-28T20:30:28Z</time>
      </trkpt>
      <trkpt lat="49.41261" lon="3.01039">
        <ele>37.15</ele>
        <time>2021-07-28T20:31:49Z</time>
      </trkpt>
      <trkpt lat="49.4126" lon="3.01039">
        <ele>37.15</ele>
        <time>2021-07-28T20:31:50Z</time>
      </trkpt>
      <trkpt lat="49.41257" lon="3.01026">
        <ele>36.19</ele>
        <time>2021-07-28T20:31:56Z</time>
      </trkpt>
      <trkpt lat="49.41274" lon="3.00999">
        <ele>35.71</ele>
        <time>2021-07-28T20:32:08Z</time>
      </trkpt>
      <trkpt lat="49.41295" lon="3.00984">
        <ele>35.71</ele>
        <time>2021-07-28T20:32:18Z</time>
      </trkpt>
      <trkpt lat="49.41309" lon="3.00891">
        <ele>36.67</ele>
        <time>2021-07-28T20:32:28Z</time>
      </trkpt>
      <trkpt lat="49.41318" lon="3.00862">
        <ele>36.19</ele>
        <time>2021-07-28T20:32:34Z</time>
      </trkpt>
      <trkpt lat="49.41318" lon="3.00862">
        <ele>35.71</ele>
        <time>2021-07-28T20:32:35Z</time>
      </trkpt>
      <trkpt lat="49.41321" lon="3.00863">
        <ele>35.71</ele>
        <time>2021-07-28T20:32:36Z</time>
      </trkpt>
      <trkpt lat="49.41325" lon="3.00865">
        <ele>35.71</ele>
        <time>2021-07-28T20:32:37Z</time>
      </trkpt>
      <trkpt lat="49.4133" lon="3.00867">
        <ele>35.71</ele>
        <time>2021-07-28T20:32:38Z</time>
      </trkpt>
      <trkpt lat="49.41347" lon="3.00873">
        <ele>35.71</ele>
        <time>2021-07-28T20:32:40Z</time>
      </trkpt>
      <trkpt lat="49.41421" lon="3.00899">
        <ele>37.63</ele>
        <time>2021-07-28T20:32:50Z</time>
      </trkpt>
      <trkpt lat="49.41433" lon="3.00903">
        <ele>38.59</ele>
        <time>2021-07-28T20:32:52Z</time>
      </trkpt>
      <trkpt lat="49.41438" lon="3.00905">
        <ele>38.59</ele>
        <time>2021-07-28T20:32:53Z</time>
      </trkpt>
      <trkpt lat="49.41442" lon="3.00905">
        <ele>38.59</ele>
        <time>2021-07-28T20:32:54Z</time>
      </trkpt>
      <trkpt lat="49.41456" lon="3.00897">
        <ele>38.11</ele>
        <time>2021-07-28T20:32:55Z</time>
      </trkpt>
      <trkpt lat="49.41458" lon="3.00888">
        <ele>37.15</ele>
        <time>2021-07-28T20:32:56Z</time>
      </trkpt>
      <trkpt lat="49.41458" lon="3.00888">
        <ele>38.11</ele>
        <time>2021-07-28T20:32:57Z</time>
      </trkpt>
      <trkpt lat="49.4146" lon="3.00878">
        <ele>38.11</ele>
        <time>2021-07-28T20:32:58Z</time>
      </trkpt>
      <trkpt lat="49.41463" lon="3.00867">
        <ele>38.11</ele>
        <time>2021-07-28T20:32:59Z</time>
      </trkpt>
      <trkpt lat="49.41466" lon="3.00856">
        <ele>38.11</ele>
        <time>2021-07-28T20:33:00Z</time>
      </trkpt>
      <trkpt lat="49.41478" lon="3.00845">
        <ele>38.59</ele>
        <time>2021-07-28T20:33:01Z</time>
      </trkpt>
      <trkpt lat="49.41478" lon="3.00845">
        <ele>38.59</ele>
        <time>2021-07-28T20:33:02Z</time>
      </trkpt>
      <trkpt lat="49.41485" lon="3.00843">
        <ele>39.07</ele>
        <time>2021-07-28T20:33:03Z</time>
      </trkpt>
      <trkpt lat="49.41493" lon="3.00841">
        <ele>39.55</ele>
        <time>2021-07-28T20:33:04Z</time>
      </trkpt>
      <trkpt lat="49.41501" lon="3.00839">
        <ele>40.03</ele>
        <time>2021-07-28T20:33:05Z</time>
      </trkpt>
      <trkpt lat="49.41583" lon="3.00862">
        <ele>45.32</ele>
        <time>2021-07-28T20:33:13Z</time>
      </trkpt>
      <trkpt lat="49.41701" lon="3.00899">
        <ele>53.01</ele>
        <time>2021-07-28T20:33:23Z</time>
      </trkpt>
      <trkpt lat="49.4181" lon="3.00883">
        <ele>56.37</ele>
        <time>2021-07-28T20:33:33Z</time>
      </trkpt>
      <trkpt lat="49.41824" lon="3.0088">
        <ele>58.3</ele>
        <time>2021-07-28T20:33:35Z</time>
      </trkpt>
    </trkseg>
  </trk>
</gpx>